createdAt,value
2023-03-01T00:01:31.679Z,7.24
2023-03-01T00:04:00.551Z,7.31
2023-03-01T00:06:29.021Z,7.32
2023-03-01T00:08:57.310Z,7.30
2023-03-01T00:11:28.144Z,7.26
2023-03-01T00:13:58.579Z,7.40
2023-03-01T00:16:30.621Z,7.40
2023-03-01T00:18:58.605Z,7.24
2023-03-01T00:21:28.065Z,7.20
2023-03-01T00:23:56.704Z,7.15
2023-03-01T00:26:26.957Z,7.14
2023-03-01T00:28:58.868Z,7.05
2023-03-01T00:31:30.423Z,6.88
2023-03-01T00:34:02.596Z,6.83
2023-03-01T00:36:34.587Z,6.79
2023-03-01T00:39:05.923Z,6.75
2023-03-01T00:41:35.574Z,6.70
2023-03-01T00:44:04.363Z,6.69
2023-03-01T00:46:32.188Z,6.64
2023-03-01T00:49:03.068Z,6.47
2023-03-01T00:51:31.251Z,6.33
2023-03-01T00:54:01.621Z,6.34
2023-03-01T00:56:31.265Z,6.40
2023-03-01T00:58:59.689Z,6.44
2023-03-01T01:01:30.693Z,6.40
2023-03-01T01:04:01.425Z,6.25
2023-03-01T01:06:32.775Z,6.20
2023-03-01T01:09:01.206Z,6.20
2023-03-01T01:11:30.596Z,5.89
2023-03-01T01:13:59.582Z,5.76
2023-03-01T01:16:29.840Z,5.82
2023-03-01T01:18:57.748Z,5.78
2023-03-01T01:21:28.031Z,5.78
2023-03-01T01:23:55.825Z,5.76
2023-03-01T01:26:30.129Z,5.73
2023-03-01T01:28:58.869Z,5.68
2023-03-01T01:31:29.138Z,5.70
2023-03-01T01:34:01.404Z,5.73
2023-03-01T01:36:30.265Z,5.73
2023-03-01T01:38:59.241Z,5.72
2023-03-01T01:41:29.434Z,5.75
2023-03-01T01:44:25.986Z,5.63
2023-03-01T01:47:03.041Z,5.67
2023-03-01T01:49:49.525Z,5.70
2023-03-01T01:52:26.575Z,5.72
2023-03-01T01:55:11.757Z,5.73
2023-03-01T01:57:41.527Z,5.68
2023-03-01T02:00:15.693Z,5.77
2023-03-01T02:02:46.912Z,5.62
2023-03-01T02:05:23.706Z,5.43
2023-03-01T02:07:52.492Z,5.38
2023-03-01T02:10:24.312Z,5.42
2023-03-01T02:12:53.482Z,5.37
2023-03-01T02:15:24.995Z,5.41
2023-03-01T02:17:54.611Z,5.10
2023-03-01T02:20:48.338Z,5.23
2023-03-01T02:23:16.175Z,5.06
2023-03-01T02:25:56.834Z,5.10
2023-03-01T02:28:35.058Z,5.09
2023-03-01T02:31:26.871Z,5.10
2023-03-01T02:33:56.463Z,5.11
2023-03-01T02:36:29.647Z,5.00
2023-03-01T02:39:01.007Z,5.01
2023-03-01T02:41:33.541Z,5.08
2023-03-01T02:44:01.555Z,5.05
2023-03-01T02:46:31.010Z,4.90
2023-03-01T02:49:00.222Z,4.89
2023-03-01T02:51:49.775Z,5.10
2023-03-01T02:54:30.440Z,4.91
2023-03-01T02:56:59.340Z,4.86
2023-03-01T02:59:32.476Z,5.06
2023-03-01T03:02:02.204Z,5.23
2023-03-01T03:04:29.817Z,5.25
2023-03-01T03:06:58.385Z,5.37
2023-03-01T03:09:27.147Z,5.17
2023-03-01T03:11:54.727Z,5.01
2023-03-01T03:14:24.606Z,4.97
2023-03-01T03:16:52.267Z,5.07
2023-03-01T03:19:21.447Z,5.31
2023-03-01T03:21:49.080Z,5.39
2023-03-01T03:24:16.782Z,5.43
2023-03-01T03:26:44.778Z,5.60
2023-03-01T03:29:12.802Z,5.72
2023-03-01T03:31:40.321Z,5.71
2023-03-01T03:34:08.198Z,5.75
2023-03-01T03:36:35.792Z,5.75
2023-03-01T03:39:03.520Z,5.82
2023-03-01T03:41:31.909Z,5.72
2023-03-01T03:43:59.562Z,5.65
2023-03-01T03:46:27.608Z,5.54
2023-03-01T03:48:55.103Z,5.51
2023-03-01T03:51:23.840Z,5.39
2023-03-01T03:53:51.782Z,5.35
2023-03-01T03:56:19.933Z,5.30
2023-03-01T03:58:47.448Z,5.42
2023-03-01T04:01:15.046Z,5.47
2023-03-01T04:03:47.590Z,5.40
2023-03-01T04:06:15.770Z,5.43
2023-03-01T04:08:44.176Z,5.25
2023-03-01T04:11:28.381Z,5.33
2023-03-01T04:13:58.790Z,5.38
2023-03-01T04:16:27.632Z,5.29
2023-03-01T04:18:55.784Z,5.37
2023-03-01T04:21:24.052Z,5.48
2023-03-01T04:23:53.653Z,5.37
2023-03-01T04:26:21.298Z,5.32
2023-03-01T04:28:51.378Z,5.19
2023-03-01T04:31:22.246Z,5.35
2023-03-01T04:33:53.395Z,5.55
2023-03-01T04:36:24.583Z,5.42
2023-03-01T04:38:53.133Z,5.45
2023-03-01T04:41:23.042Z,5.43
2023-03-01T04:43:51.509Z,5.28
2023-03-01T04:46:21.697Z,5.25
2023-03-01T04:48:50.418Z,5.45
2023-03-01T04:51:19.383Z,5.52
2023-03-01T04:53:47.411Z,5.49
2023-03-01T04:56:16.170Z,5.59
2023-03-01T04:58:45.169Z,5.30
2023-03-01T05:01:17.685Z,5.46
2023-03-01T05:03:48.341Z,5.58
2023-03-01T05:06:17.837Z,5.65
2023-03-01T05:08:46.059Z,5.68
2023-03-01T05:11:14.386Z,5.57
2023-03-01T05:13:42.916Z,5.55
2023-03-01T05:16:12.659Z,5.51
2023-03-01T05:18:41.907Z,5.37
2023-03-01T05:21:12.628Z,5.43
2023-03-01T05:23:40.736Z,5.38
2023-03-01T05:26:22.306Z,5.60
2023-03-01T05:29:00.014Z,5.62
2023-03-01T05:31:28.620Z,5.71
2023-03-01T05:33:56.782Z,5.86
2023-03-01T05:36:24.301Z,5.86
2023-03-01T05:38:52.914Z,5.96
2023-03-01T05:41:20.415Z,5.98
2023-03-01T05:43:48.339Z,6.04
2023-03-01T05:46:16.503Z,6.08
2023-03-01T05:48:44.804Z,6.11
2023-03-01T05:51:13.164Z,6.10
2023-03-01T05:53:41.545Z,6.03
2023-03-01T05:56:09.235Z,6.16
2023-03-01T05:58:36.816Z,6.10
2023-03-01T06:01:04.501Z,6.15
2023-03-01T06:03:32.111Z,6.22
2023-03-01T06:06:00.186Z,6.32
2023-03-01T06:08:28.664Z,6.37
2023-03-01T06:10:56.143Z,6.19
2023-03-01T06:13:24.701Z,6.31
2023-03-01T06:15:53.093Z,6.35
2023-03-01T06:18:20.821Z,6.38
2023-03-01T06:20:57.369Z,6.34
2023-03-01T06:23:25.867Z,6.47
2023-03-01T06:25:53.490Z,6.55
2023-03-01T06:28:21.497Z,6.56
2023-03-01T06:30:50.805Z,6.67
2023-03-01T06:33:21.056Z,6.85
2023-03-01T06:35:49.524Z,6.89
2023-03-01T06:38:19.964Z,6.83
2023-03-01T06:40:54.236Z,6.96
2023-03-01T06:43:22.669Z,6.97
2023-03-01T06:45:50.702Z,6.98
2023-03-01T06:48:18.917Z,6.99
2023-03-01T06:50:46.506Z,7.20
2023-03-01T06:53:15.143Z,7.27
2023-03-01T06:55:42.750Z,7.30
2023-03-01T06:58:11.649Z,7.37
2023-03-01T07:00:41.873Z,7.36
2023-03-01T07:03:09.716Z,7.48
2023-03-01T07:05:37.807Z,7.47
2023-03-01T07:08:05.940Z,7.29
2023-03-01T07:10:33.819Z,7.29
2023-03-01T07:13:01.408Z,7.63
2023-03-01T07:15:29.942Z,7.60
2023-03-01T07:17:58.534Z,7.58
2023-03-01T07:20:26.731Z,7.50
2023-03-01T07:22:57.398Z,7.54
2023-03-01T07:25:25.767Z,7.58
2023-03-01T07:27:54.215Z,7.44
2023-03-01T07:30:22.428Z,7.83
2023-03-01T07:32:50.757Z,8.01
2023-03-01T07:35:18.450Z,8.11
2023-03-01T07:37:46.037Z,8.06
2023-03-01T07:40:14.263Z,8.15
2023-03-01T07:42:42.147Z,8.31
2023-03-01T07:45:10.115Z,8.27
2023-03-01T07:47:38.613Z,8.10
2023-03-01T07:50:06.598Z,8.18
2023-03-01T07:52:34.087Z,8.23
2023-03-01T07:55:01.677Z,8.65
2023-03-01T07:57:29.763Z,8.97
2023-03-01T07:59:57.808Z,8.97
2023-03-01T08:02:25.483Z,9.27
2023-03-01T08:04:54.110Z,9.32
2023-03-01T08:07:21.657Z,9.45
2023-03-01T08:09:49.916Z,9.27
2023-03-01T08:12:18.529Z,9.64
2023-03-01T08:14:46.455Z,9.39
2023-03-01T08:17:17.065Z,9.60
2023-03-01T08:19:44.666Z,9.88
2023-03-01T08:22:12.576Z,10.03
2023-03-01T08:24:40.722Z,10.08
2023-03-01T08:27:09.753Z,10.16
2023-03-01T08:29:37.677Z,10.64
2023-03-01T08:32:06.290Z,10.17
2023-03-01T08:34:36.537Z,10.15
2023-03-01T08:37:04.196Z,10.33
2023-03-01T08:39:32.877Z,10.52
2023-03-01T08:42:00.903Z,10.10
2023-03-01T08:44:28.425Z,10.43
2023-03-01T08:46:56.734Z,10.09
2023-03-01T08:49:25.629Z,10.20
2023-03-01T08:51:53.205Z,10.17
2023-03-01T08:54:22.734Z,10.19
2023-03-01T08:56:51.219Z,10.00
2023-03-01T08:59:19.788Z,10.05
2023-03-01T09:01:47.547Z,10.22
2023-03-01T09:04:17.074Z,10.41
2023-03-01T09:06:44.826Z,10.45
2023-03-01T09:09:18.306Z,10.76
2023-03-01T09:11:47.614Z,10.54
2023-03-01T09:14:15.817Z,10.92
2023-03-01T09:16:44.488Z,10.97
2023-03-01T09:19:12.328Z,10.66
2023-03-01T09:21:41.229Z,10.88
2023-03-01T09:24:15.342Z,10.53
2023-03-01T09:26:43.396Z,10.45
2023-03-01T09:29:11.439Z,10.63
2023-03-01T09:31:40.432Z,10.84
2023-03-01T09:34:08.923Z,10.83
2023-03-01T09:36:36.816Z,10.61
2023-03-01T09:39:06.920Z,10.58
2023-03-01T09:41:48.431Z,10.98
2023-03-01T09:44:41.383Z,10.79
2023-03-01T09:47:25.407Z,11.12
2023-03-01T09:50:15.319Z,11.17
2023-03-01T09:52:49.826Z,11.87
2023-03-01T09:55:35.855Z,11.80
2023-03-01T09:58:30.819Z,11.69
2023-03-01T10:01:03.875Z,11.53
2023-03-01T10:04:03.741Z,11.68
2023-03-01T10:06:35.212Z,11.57
2023-03-01T10:09:10.176Z,11.03
2023-03-01T10:11:47.958Z,11.12
2023-03-01T10:14:37.547Z,11.06
2023-03-01T10:17:20.874Z,10.96
2023-03-01T10:19:48.758Z,11.20
2023-03-01T10:22:30.277Z,11.21
2023-03-01T10:25:03.261Z,11.52
2023-03-01T10:27:41.447Z,11.19
2023-03-01T10:30:21.853Z,11.27
2023-03-01T10:32:53.850Z,11.66
2023-03-01T10:35:24.472Z,11.29
2023-03-01T10:38:07.569Z,10.98
2023-03-01T10:40:37.064Z,11.23
2023-03-01T10:43:06.934Z,11.53
2023-03-01T10:45:38.802Z,11.59
2023-03-01T10:48:30.068Z,11.71
2023-03-01T10:51:01.710Z,11.91
2023-03-01T10:53:39.199Z,12.10
2023-03-01T10:56:10.486Z,12.47
2023-03-01T10:58:40.228Z,12.27
2023-03-01T11:01:31.255Z,12.20
2023-03-01T11:04:08.775Z,12.68
2023-03-01T11:06:38.775Z,12.98
2023-03-01T11:09:22.476Z,12.69
2023-03-01T11:11:57.994Z,12.66
2023-03-01T11:14:28.721Z,12.53
2023-03-01T11:17:03.057Z,12.76
2023-03-01T11:19:31.364Z,12.29
2023-03-01T11:22:21.961Z,12.32
2023-03-01T11:25:08.467Z,12.50
2023-03-01T11:27:42.347Z,12.58
2023-03-01T11:30:19.460Z,12.20
2023-03-01T11:32:50.725Z,11.97
2023-03-01T11:35:27.058Z,11.81
2023-03-01T11:38:13.904Z,11.77
2023-03-01T11:40:48.041Z,11.67
2023-03-01T11:43:28.770Z,11.47
2023-03-01T11:46:13.503Z,11.53
2023-03-01T11:49:20.943Z,11.61
2023-03-01T11:52:07.001Z,11.87
2023-03-01T11:54:54.162Z,12.03
2023-03-01T11:57:50.093Z,12.10
2023-03-01T12:00:45.668Z,12.23
2023-03-01T12:03:31.076Z,12.25
2023-03-01T12:06:29.353Z,12.22
2023-03-01T12:09:09.427Z,12.26
2023-03-01T12:11:46.816Z,12.15
2023-03-01T12:14:33.009Z,12.26
2023-03-01T12:17:13.423Z,12.01
2023-03-01T12:20:12.058Z,12.29
2023-03-01T12:22:45.884Z,11.73
2023-03-01T12:25:36.170Z,11.71
2023-03-01T12:28:15.855Z,11.91
2023-03-01T12:31:06.324Z,11.88
2023-03-01T12:33:58.534Z,11.73
2023-03-01T12:36:39.069Z,11.54
2023-03-01T12:39:29.740Z,11.32
2023-03-01T12:42:14.236Z,10.91
2023-03-01T12:44:48.681Z,10.72
2023-03-01T12:47:27.700Z,10.49
2023-03-01T12:49:59.434Z,10.51
2023-03-01T12:52:51.220Z,10.53
2023-03-01T12:55:31.400Z,10.56
2023-03-01T12:58:37.122Z,10.75
2023-03-01T13:01:15.422Z,11.07
2023-03-01T13:03:46.107Z,10.80
2023-03-01T13:06:19.768Z,11.26
2023-03-01T13:08:57.432Z,10.94
2023-03-01T13:11:25.744Z,11.02
2023-03-01T13:13:55.568Z,10.95
2023-03-01T13:16:38.462Z,10.80
2023-03-01T13:19:17.072Z,10.75
2023-03-01T13:21:46.352Z,10.57
2023-03-01T13:24:32.504Z,10.61
2023-03-01T13:27:09.674Z,10.71
2023-03-01T13:29:52.977Z,10.41
2023-03-01T13:32:34.608Z,10.44
2023-03-01T13:35:17.902Z,10.44
2023-03-01T13:37:46.939Z,10.75
2023-03-01T13:40:19.449Z,10.32
2023-03-01T13:43:04.275Z,10.47
2023-03-01T13:45:44.096Z,10.24
2023-03-01T13:48:28.772Z,10.18
2023-03-01T13:51:02.343Z,10.16
2023-03-01T13:53:38.288Z,10.39
2023-03-01T13:56:19.507Z,10.48
2023-03-01T13:59:05.711Z,10.48
2023-03-01T14:01:36.782Z,10.33
2023-03-01T14:04:21.800Z,10.20
2023-03-01T14:06:49.920Z,10.16
2023-03-01T14:09:29.399Z,9.86
2023-03-01T14:12:31.346Z,9.88
2023-03-01T14:15:26.644Z,9.58
2023-03-01T14:18:17.540Z,9.53
2023-03-01T14:20:52.292Z,9.58
2023-03-01T14:23:23.038Z,9.40
2023-03-01T14:25:56.731Z,9.30
2023-03-01T14:28:34.406Z,9.43
2023-03-01T14:31:03.229Z,9.26
2023-03-01T14:33:38.249Z,9.30
2023-03-01T14:36:14.568Z,9.15
2023-03-01T14:38:43.422Z,9.34
2023-03-01T14:41:16.819Z,9.01
2023-03-01T14:43:48.955Z,9.00
2023-03-01T14:46:22.339Z,8.84
2023-03-01T14:48:53.266Z,8.78
2023-03-01T14:51:21.426Z,8.95
2023-03-01T14:53:51.617Z,8.73
2023-03-01T14:56:20.464Z,8.58
2023-03-01T14:58:53.302Z,8.66
2023-03-01T15:01:22.560Z,8.80
2023-03-01T15:03:51.883Z,8.92
2023-03-01T15:06:21.664Z,9.11
2023-03-01T15:08:53.459Z,9.24
2023-03-01T15:11:25.910Z,9.31
2023-03-01T15:13:55.531Z,9.13
2023-03-01T15:16:35.639Z,9.21
2023-03-01T15:19:07.138Z,9.13
2023-03-01T15:21:37.750Z,9.26
2023-03-01T15:24:13.073Z,9.31
2023-03-01T15:26:43.368Z,9.21
2023-03-01T15:29:19.283Z,9.29
2023-03-01T15:32:05.250Z,9.28
2023-03-01T15:34:38.428Z,9.11
2023-03-01T15:37:28.561Z,8.88
2023-03-01T15:39:58.392Z,8.70
2023-03-01T15:42:29.209Z,8.80
2023-03-01T15:45:17.044Z,8.79
2023-03-01T15:47:54.296Z,8.77
2023-03-01T15:50:35.087Z,8.69
2023-03-01T15:53:12.220Z,8.61
2023-03-01T15:55:40.688Z,8.66
2023-03-01T15:58:15.590Z,8.66
2023-03-01T16:00:59.483Z,8.49
2023-03-01T16:03:29.225Z,8.31
2023-03-01T16:05:57.842Z,8.33
2023-03-01T16:08:25.414Z,8.16
2023-03-01T16:10:55.533Z,8.09
2023-03-01T16:13:23.783Z,8.01
2023-03-01T16:15:52.493Z,7.82
2023-03-01T16:18:20.562Z,7.89
2023-03-01T16:20:49.358Z,7.72
2023-03-01T16:23:17.370Z,7.72
2023-03-01T16:25:45.462Z,7.55
2023-03-01T16:28:15.172Z,7.60
2023-03-01T16:30:48.742Z,7.51
2023-03-01T16:33:29.595Z,7.43
2023-03-01T16:36:03.380Z,7.35
2023-03-01T16:38:33.650Z,7.43
2023-03-01T16:41:02.014Z,7.52
2023-03-01T16:43:31.243Z,7.49
2023-03-01T16:45:59.855Z,7.47
2023-03-01T16:48:27.655Z,7.58
2023-03-01T16:51:01.132Z,7.54
2023-03-01T16:53:29.799Z,7.60
2023-03-01T16:55:59.048Z,7.65
2023-03-01T16:58:27.430Z,7.68
2023-03-01T17:00:56.498Z,7.66
2023-03-01T17:03:27.284Z,7.71
2023-03-01T17:05:55.584Z,7.55
2023-03-01T17:08:24.628Z,7.61
2023-03-01T17:10:52.240Z,7.72
2023-03-01T17:13:20.445Z,7.61
2023-03-01T17:15:49.489Z,7.62
2023-03-01T17:18:17.725Z,7.57
2023-03-01T17:20:45.296Z,7.47
2023-03-01T17:23:13.962Z,7.34
2023-03-01T17:25:45.687Z,7.43
2023-03-01T17:28:14.722Z,7.38
2023-03-01T17:30:45.574Z,7.21
2023-03-01T17:33:15.042Z,7.28
2023-03-01T17:35:46.213Z,7.24
2023-03-01T17:38:18.189Z,7.24
2023-03-01T17:40:47.040Z,7.35
2023-03-01T17:43:17.546Z,7.41
2023-03-01T17:45:48.816Z,7.45
2023-03-01T17:48:17.388Z,7.51
2023-03-01T17:50:45.054Z,7.44
2023-03-01T17:53:12.839Z,7.41
2023-03-01T17:55:43.697Z,7.67
2023-03-01T17:58:13.878Z,7.46
2023-03-01T18:00:42.662Z,7.48
2023-03-01T18:03:11.286Z,7.60
2023-03-01T18:05:39.839Z,7.35
2023-03-01T18:08:08.269Z,7.40
2023-03-01T18:10:37.552Z,7.47
2023-03-01T18:13:06.645Z,7.62
2023-03-01T18:15:34.310Z,7.71
2023-03-01T18:18:02.553Z,7.71
2023-03-01T18:20:32.822Z,7.44
2023-03-01T18:23:00.958Z,7.41
2023-03-01T18:25:29.387Z,7.46
2023-03-01T18:27:57.006Z,7.42
2023-03-01T18:30:25.139Z,7.32
2023-03-01T18:32:56.359Z,7.30
2023-03-01T18:35:24.918Z,7.41
2023-03-01T18:37:52.708Z,7.49
2023-03-01T18:40:20.908Z,7.43
2023-03-01T18:42:48.446Z,7.39
2023-03-01T18:45:18.020Z,7.41
2023-03-01T18:47:45.708Z,7.49
2023-03-01T18:50:13.256Z,7.50
2023-03-01T18:52:41.786Z,7.61
2023-03-01T18:55:09.930Z,7.60
2023-03-01T18:57:38.303Z,7.55
2023-03-01T19:00:07.113Z,7.23
2023-03-01T19:02:35.192Z,7.05
2023-03-01T19:05:03.935Z,7.20
2023-03-01T19:07:31.976Z,7.28
2023-03-01T19:10:00.591Z,7.33
2023-03-01T19:12:28.587Z,7.28
2023-03-01T19:14:56.448Z,7.40
2023-03-01T19:17:30.519Z,7.51
2023-03-01T19:19:59.091Z,7.29
2023-03-01T19:22:28.464Z,7.33
2023-03-01T19:24:56.052Z,7.28
2023-03-01T19:27:23.684Z,7.24
2023-03-01T19:29:51.419Z,7.47
2023-03-01T19:32:19.490Z,7.53
2023-03-01T19:34:47.549Z,7.49
2023-03-01T19:37:15.622Z,7.51
2023-03-01T19:39:44.050Z,7.58
2023-03-01T19:42:12.260Z,7.68
2023-03-01T19:44:41.523Z,7.69
2023-03-01T19:47:09.959Z,7.58
2023-03-01T19:49:38.251Z,7.42
2023-03-01T19:52:06.464Z,7.44
2023-03-01T19:54:35.089Z,7.39
2023-03-01T19:57:03.196Z,7.40
2023-03-01T19:59:30.844Z,7.43
2023-03-01T20:01:58.859Z,7.47
2023-03-01T20:04:27.204Z,7.54
2023-03-01T20:06:55.475Z,7.74
2023-03-01T20:09:23.453Z,7.72
2023-03-01T20:11:51.698Z,7.81
2023-03-01T20:14:23.577Z,7.62
2023-03-01T20:16:52.483Z,7.72
2023-03-01T20:19:20.145Z,7.74
2023-03-01T20:21:47.895Z,7.84
2023-03-01T20:24:15.888Z,7.75
2023-03-01T20:26:43.903Z,7.75
2023-03-01T20:29:12.773Z,7.74
2023-03-01T20:31:42.656Z,7.75
2023-03-01T20:34:11.044Z,7.78
2023-03-01T20:36:41.069Z,7.73
2023-03-01T20:39:09.812Z,7.84
2023-03-01T20:41:40.026Z,7.64
2023-03-01T20:44:07.874Z,7.66
2023-03-01T20:46:37.349Z,7.79
2023-03-01T20:49:06.414Z,7.72
2023-03-01T20:51:33.959Z,7.70
2023-03-01T20:54:02.208Z,7.86
2023-03-01T20:56:31.152Z,7.89
2023-03-01T20:59:08.175Z,8.04
2023-03-01T21:01:38.850Z,8.06
2023-03-01T21:04:07.620Z,7.90
2023-03-01T21:06:37.928Z,7.81
2023-03-01T21:09:06.111Z,8.04
2023-03-01T21:11:34.228Z,8.05
2023-03-01T21:14:02.386Z,7.96
2023-03-01T21:16:30.875Z,8.12
2023-03-01T21:19:04.571Z,7.97
2023-03-01T21:21:33.230Z,8.03
2023-03-01T21:24:00.957Z,7.93
2023-03-01T21:26:28.435Z,7.90
2023-03-01T21:29:03.742Z,8.02
2023-03-01T21:31:35.383Z,8.00
2023-03-01T21:34:06.189Z,8.04
2023-03-01T21:36:36.077Z,8.13
2023-03-01T21:39:06.410Z,8.15
2023-03-01T21:41:36.468Z,8.08
2023-03-01T21:44:06.757Z,8.18
2023-03-01T21:46:38.485Z,8.25
2023-03-01T21:49:07.640Z,8.23
2023-03-01T21:51:36.676Z,8.25
2023-03-01T21:54:05.762Z,8.31
2023-03-01T21:56:35.478Z,8.18
2023-03-01T21:59:04.090Z,8.12
2023-03-01T22:01:32.389Z,8.25
2023-03-01T22:04:03.225Z,8.12
2023-03-01T22:06:40.713Z,8.26
2023-03-01T22:09:15.879Z,8.30
2023-03-01T22:11:47.588Z,8.24
2023-03-01T22:14:18.006Z,8.24
2023-03-01T22:16:48.209Z,8.10
2023-03-01T22:19:17.861Z,8.14
2023-03-01T22:21:49.785Z,8.24
2023-03-01T22:24:19.468Z,8.34
2023-03-01T22:26:49.316Z,8.30
2023-03-01T22:29:21.378Z,8.25
2023-03-01T22:31:50.569Z,8.40
2023-03-01T22:34:19.384Z,8.38
2023-03-01T22:36:48.257Z,8.36
2023-03-01T22:39:20.221Z,8.38
2023-03-01T22:41:49.704Z,8.34
2023-03-01T22:44:20.288Z,8.42
2023-03-01T22:46:48.907Z,8.49
2023-03-01T22:49:17.683Z,8.53
2023-03-01T22:51:47.589Z,8.46
2023-03-01T22:54:16.620Z,8.57
2023-03-01T22:56:44.349Z,8.64
2023-03-01T22:59:15.667Z,8.62
2023-03-01T23:01:48.171Z,8.50
2023-03-01T23:04:17.813Z,8.59
2023-03-01T23:06:53.820Z,8.50
2023-03-01T23:09:30.102Z,8.63
2023-03-01T23:12:00.384Z,8.66
2023-03-01T23:14:32.402Z,8.62
2023-03-01T23:17:01.687Z,8.75
2023-03-01T23:19:30.928Z,8.66
2023-03-01T23:21:58.925Z,8.56
2023-03-01T23:24:31.462Z,8.64
2023-03-01T23:27:01.400Z,8.79
2023-03-01T23:29:29.527Z,8.72
2023-03-01T23:32:00.617Z,8.67
2023-03-01T23:34:28.851Z,8.77
2023-03-01T23:36:58.669Z,8.78
2023-03-01T23:39:29.929Z,8.73
2023-03-01T23:41:58.656Z,8.71
2023-03-01T23:44:26.502Z,8.84
2023-03-01T23:46:54.035Z,8.96
2023-03-01T23:49:23.947Z,8.96
2023-03-01T23:51:52.682Z,8.98
2023-03-01T23:54:23.806Z,8.87
2023-03-01T23:56:52.115Z,8.94
2023-03-01T23:59:23.026Z,8.90
